sensor_id;sensor_type;location;lat;lon;timestamp;P1;durP1;ratioP1;P2;durP2;ratioP2
15307;SDS011;7755;52.208;6.964;2022-07-23T00:01:16;3.73;;;3.43;;
15307;SDS011;7755;52.208;6.964;2022-07-23T00:05:19;4.00;;;3.70;;
15307;SDS011;7755;52.208;6.964;2022-07-23T00:09:23;3.80;;;3.50;;
15307;SDS011;7755;52.208;6.964;2022-07-23T00:13:25;4.43;;;3.63;;
15307;SDS011;7755;52.208;6.964;2022-07-23T00:17:27;3.50;;;3.30;;
15307;SDS011;7755;52.208;6.964;2022-07-23T00:21:38;3.77;;;3.50;;
15307;SDS011;7755;52.208;6.964;2022-07-23T00:25:41;4.00;;;3.70;;
15307;SDS011;7755;52.208;6.964;2022-07-23T00:29:44;3.83;;;3.53;;
15307;SDS011;7755;52.208;6.964;2022-07-23T00:33:46;3.47;;;3.23;;
15307;SDS011;7755;52.208;6.964;2022-07-23T00:37:48;4.57;;;4.17;;
15307;SDS011;7755;52.208;6.964;2022-07-23T00:41:55;4.27;;;3.87;;
15307;SDS011;7755;52.208;6.964;2022-07-23T00:45:59;4.70;;;4.30;;
15307;SDS011;7755;52.208;6.964;2022-07-23T00:50:02;3.97;;;3.67;;
15307;SDS011;7755;52.208;6.964;2022-07-23T00:54:06;3.60;;;3.37;;
15307;SDS011;7755;52.208;6.964;2022-07-23T00:58:09;5.27;;;4.10;;
15307;SDS011;7755;52.208;6.964;2022-07-23T01:02:12;5.03;;;4.53;;
15307;SDS011;7755;52.208;6.964;2022-07-23T01:06:14;4.50;;;4.10;;
15307;SDS011;7755;52.208;6.964;2022-07-23T01:10:17;4.50;;;4.20;;
15307;SDS011;7755;52.208;6.964;2022-07-23T01:14:38;4.73;;;4.33;;
15307;SDS011;7755;52.208;6.964;2022-07-23T01:18:41;4.53;;;4.13;;
15307;SDS011;7755;52.208;6.964;2022-07-23T01:22:45;4.60;;;4.20;;
15307;SDS011;7755;52.208;6.964;2022-07-23T01:26:48;7.43;;;5.70;;
15307;SDS011;7755;52.208;6.964;2022-07-23T01:30:52;4.73;;;4.43;;
15307;SDS011;7755;52.208;6.964;2022-07-23T01:34:56;5.27;;;4.77;;
15307;SDS011;7755;52.208;6.964;2022-07-23T01:39:00;5.53;;;5.13;;
15307;SDS011;7755;52.208;6.964;2022-07-23T01:43:03;6.13;;;5.20;;
15307;SDS011;7755;52.208;6.964;2022-07-23T01:47:07;5.70;;;5.17;;
15307;SDS011;7755;52.208;6.964;2022-07-23T01:51:09;5.67;;;5.17;;
15307;SDS011;7755;52.208;6.964;2022-07-23T01:55:17;6.00;;;5.47;;
15307;SDS011;7755;52.208;6.964;2022-07-23T01:59:22;5.83;;;5.27;;
15307;SDS011;7755;52.208;6.964;2022-07-23T02:03:26;4.93;;;4.53;;
15307;SDS011;7755;52.208;6.964;2022-07-23T02:07:28;5.80;;;5.30;;
15307;SDS011;7755;52.208;6.964;2022-07-23T02:11:34;4.80;;;4.40;;
15307;SDS011;7755;52.208;6.964;2022-07-23T02:15:36;4.70;;;4.30;;
15307;SDS011;7755;52.208;6.964;2022-07-23T02:19:39;5.50;;;5.00;;
15307;SDS011;7755;52.208;6.964;2022-07-23T02:23:42;5.30;;;4.90;;
15307;SDS011;7755;52.208;6.964;2022-07-23T02:27:46;5.40;;;4.80;;
15307;SDS011;7755;52.208;6.964;2022-07-23T02:31:48;5.13;;;4.73;;
15307;SDS011;7755;52.208;6.964;2022-07-23T02:35:50;5.97;;;5.47;;
15307;SDS011;7755;52.208;6.964;2022-07-23T02:39:54;5.47;;;5.00;;
15307;SDS011;7755;52.208;6.964;2022-07-23T02:43:57;5.27;;;4.80;;
15307;SDS011;7755;52.208;6.964;2022-07-23T02:48:00;4.63;;;4.23;;
15307;SDS011;7755;52.208;6.964;2022-07-23T02:52:04;5.70;;;5.13;;
15307;SDS011;7755;52.208;6.964;2022-07-23T02:56:06;4.20;;;3.80;;
15307;SDS011;7755;52.208;6.964;2022-07-23T03:00:10;6.97;;;5.90;;
15307;SDS011;7755;52.208;6.964;2022-07-23T03:04:13;6.33;;;5.83;;
15307;SDS011;7755;52.208;6.964;2022-07-23T03:08:18;4.47;;;4.17;;
15307;SDS011;7755;52.208;6.964;2022-07-23T03:12:24;4.93;;;4.43;;
15307;SDS011;7755;52.208;6.964;2022-07-23T03:16:28;4.90;;;4.50;;
15307;SDS011;7755;52.208;6.964;2022-07-23T03:20:30;5.13;;;4.73;;
15307;SDS011;7755;52.208;6.964;2022-07-23T03:24:33;4.17;;;3.80;;
15307;SDS011;7755;52.208;6.964;2022-07-23T03:29:05;4.43;;;4.03;;
15307;SDS011;7755;52.208;6.964;2022-07-23T03:33:09;4.97;;;4.57;;
15307;SDS011;7755;52.208;6.964;2022-07-23T03:37:11;4.03;;;3.73;;
15307;SDS011;7755;52.208;6.964;2022-07-23T03:41:14;4.70;;;4.30;;
15307;SDS011;7755;52.208;6.964;2022-07-23T03:45:16;4.30;;;4.00;;
15307;SDS011;7755;52.208;6.964;2022-07-23T03:49:20;5.80;;;5.30;;
15307;SDS011;7755;52.208;6.964;2022-07-23T03:53:23;4.70;;;4.30;;
15307;SDS011;7755;52.208;6.964;2022-07-23T03:57:25;5.20;;;4.80;;
15307;SDS011;7755;52.208;6.964;2022-07-23T04:01:28;4.97;;;4.50;;
15307;SDS011;7755;52.208;6.964;2022-07-23T04:05:32;4.63;;;4.33;;
15307;SDS011;7755;52.208;6.964;2022-07-23T04:09:40;4.83;;;4.43;;
15307;SDS011;7755;52.208;6.964;2022-07-23T04:13:43;5.93;;;5.43;;
15307;SDS011;7755;52.208;6.964;2022-07-23T04:17:48;4.53;;;4.23;;
15307;SDS011;7755;52.208;6.964;2022-07-23T04:21:55;4.83;;;4.43;;
15307;SDS011;7755;52.208;6.964;2022-07-23T04:26:04;4.90;;;4.40;;
15307;SDS011;7755;52.208;6.964;2022-07-23T04:30:08;5.47;;;5.00;;
15307;SDS011;7755;52.208;6.964;2022-07-23T04:38:20;4.53;;;4.23;;
15307;SDS011;7755;52.208;6.964;2022-07-23T04:42:25;5.43;;;4.93;;
15307;SDS011;7755;52.208;6.964;2022-07-23T04:46:27;5.93;;;5.50;;
15307;SDS011;7755;52.208;6.964;2022-07-23T04:50:30;5.13;;;4.73;;
15307;SDS011;7755;52.208;6.964;2022-07-23T04:54:34;5.13;;;4.73;;
15307;SDS011;7755;52.208;6.964;2022-07-23T04:58:36;5.57;;;5.17;;
15307;SDS011;7755;52.208;6.964;2022-07-23T05:02:39;5.70;;;5.23;;
15307;SDS011;7755;52.208;6.964;2022-07-23T05:06:41;5.80;;;5.30;;
15307;SDS011;7755;52.208;6.964;2022-07-23T05:10:45;6.27;;;5.67;;
15307;SDS011;7755;52.208;6.964;2022-07-23T05:14:49;6.20;;;5.60;;
15307;SDS011;7755;52.208;6.964;2022-07-23T05:18:54;5.93;;;5.33;;
15307;SDS011;7755;52.208;6.964;2022-07-23T05:22:56;6.23;;;5.23;;
15307;SDS011;7755;52.208;6.964;2022-07-23T05:27:00;5.97;;;5.40;;
15307;SDS011;7755;52.208;6.964;2022-07-23T05:31:03;6.30;;;5.80;;
15307;SDS011;7755;52.208;6.964;2022-07-23T05:35:06;5.83;;;4.53;;
15307;SDS011;7755;52.208;6.964;2022-07-23T05:39:13;5.63;;;4.93;;
15307;SDS011;7755;52.208;6.964;2022-07-23T05:43:16;5.63;;;5.13;;
15307;SDS011;7755;52.208;6.964;2022-07-23T05:47:18;5.47;;;4.30;;
15307;SDS011;7755;52.208;6.964;2022-07-23T05:51:21;4.70;;;4.30;;
15307;SDS011;7755;52.208;6.964;2022-07-23T05:55:24;8.47;;;4.90;;
15307;SDS011;7755;52.208;6.964;2022-07-23T05:59:33;5.00;;;4.60;;
15307;SDS011;7755;52.208;6.964;2022-07-23T06:03:35;6.33;;;4.90;;
15307;SDS011;7755;52.208;6.964;2022-07-23T06:07:38;5.97;;;5.10;;
15307;SDS011;7755;52.208;6.964;2022-07-23T06:11:41;7.00;;;4.80;;
15307;SDS011;7755;52.208;6.964;2022-07-23T06:15:45;5.73;;;4.93;;
15307;SDS011;7755;52.208;6.964;2022-07-23T06:19:48;5.83;;;4.70;;
15307;SDS011;7755;52.208;6.964;2022-07-23T06:23:50;4.33;;;3.93;;
15307;SDS011;7755;52.208;6.964;2022-07-23T06:27:52;5.10;;;4.20;;
15307;SDS011;7755;52.208;6.964;2022-07-23T06:31:59;3.67;;;3.37;;
15307;SDS011;7755;52.208;6.964;2022-07-23T06:36:03;3.93;;;3.67;;
15307;SDS011;7755;52.208;6.964;2022-07-23T06:40:06;4.73;;;3.97;;
15307;SDS011;7755;52.208;6.964;2022-07-23T06:44:11;3.40;;;3.10;;
15307;SDS011;7755;52.208;6.964;2022-07-23T06:48:19;4.57;;;2.90;;
15307;SDS011;7755;52.208;6.964;2022-07-23T06:52:21;2.87;;;2.30;;
15307;SDS011;7755;52.208;6.964;2022-07-23T06:56:24;4.43;;;3.20;;
15307;SDS011;7755;52.208;6.964;2022-07-23T07:00:28;2.93;;;2.63;;
15307;SDS011;7755;52.208;6.964;2022-07-23T07:04:34;2.77;;;2.57;;
15307;SDS011;7755;52.208;6.964;2022-07-23T07:08:36;2.80;;;2.33;;
15307;SDS011;7755;52.208;6.964;2022-07-23T07:12:38;2.83;;;2.50;;
15307;SDS011;7755;52.208;6.964;2022-07-23T07:16:40;2.73;;;2.20;;
15307;SDS011;7755;52.208;6.964;2022-07-23T07:20:44;2.60;;;2.30;;
15307;SDS011;7755;52.208;6.964;2022-07-23T07:24:46;2.87;;;2.03;;
15307;SDS011;7755;52.208;6.964;2022-07-23T07:28:48;2.90;;;2.70;;
15307;SDS011;7755;52.208;6.964;2022-07-23T07:32:50;2.87;;;2.60;;
15307;SDS011;7755;52.208;6.964;2022-07-23T07:36:55;3.43;;;2.67;;
15307;SDS011;7755;52.208;6.964;2022-07-23T07:41:16;3.73;;;2.63;;
15307;SDS011;7755;52.208;6.964;2022-07-23T07:49:56;2.77;;;2.43;;
15307;SDS011;7755;52.208;6.964;2022-07-23T07:53:59;3.03;;;2.70;;
15307;SDS011;7755;52.208;6.964;2022-07-23T07:58:02;2.73;;;2.40;;
15307;SDS011;7755;52.208;6.964;2022-07-23T08:02:04;3.17;;;2.43;;
15307;SDS011;7755;52.208;6.964;2022-07-23T08:06:06;1.90;;;1.80;;
15307;SDS011;7755;52.208;6.964;2022-07-23T08:10:10;2.13;;;1.97;;
15307;SDS011;7755;52.208;6.964;2022-07-23T08:14:12;2.47;;;1.77;;
15307;SDS011;7755;52.208;6.964;2022-07-23T08:18:16;2.17;;;1.90;;
15307;SDS011;7755;52.208;6.964;2022-07-23T08:22:19;3.77;;;1.90;;
15307;SDS011;7755;52.208;6.964;2022-07-23T08:26:28;2.53;;;2.20;;
15307;SDS011;7755;52.208;6.964;2022-07-23T08:30:30;2.83;;;2.20;;
15307;SDS011;7755;52.208;6.964;2022-07-23T08:34:33;2.53;;;2.07;;
15307;SDS011;7755;52.208;6.964;2022-07-23T08:38:35;1.70;;;1.60;;
15307;SDS011;7755;52.208;6.964;2022-07-23T08:42:39;1.93;;;1.83;;
15307;SDS011;7755;52.208;6.964;2022-07-23T08:46:41;2.20;;;2.00;;
15307;SDS011;7755;52.208;6.964;2022-07-23T08:50:47;2.00;;;1.90;;
15307;SDS011;7755;52.208;6.964;2022-07-23T08:54:57;2.40;;;2.20;;
15307;SDS011;7755;52.208;6.964;2022-07-23T08:59:13;3.30;;;1.97;;
15307;SDS011;7755;52.208;6.964;2022-07-23T09:03:16;2.20;;;2.10;;
15307;SDS011;7755;52.208;6.964;2022-07-23T09:07:20;2.40;;;2.17;;
15307;SDS011;7755;52.208;6.964;2022-07-23T09:11:24;2.67;;;2.47;;
15307;SDS011;7755;52.208;6.964;2022-07-23T09:19:45;1.90;;;1.80;;
15307;SDS011;7755;52.208;6.964;2022-07-23T09:38:00;3.67;;;1.90;;
15307;SDS011;7755;52.208;6.964;2022-07-23T09:46:33;2.10;;;1.83;;
15307;SDS011;7755;52.208;6.964;2022-07-23T09:50:51;1.77;;;1.63;;
15307;SDS011;7755;52.208;6.964;2022-07-23T09:55:00;2.73;;;1.90;;
15307;SDS011;7755;52.208;6.964;2022-07-23T09:59:04;2.30;;;2.10;;
15307;SDS011;7755;52.208;6.964;2022-07-23T10:08:14;2.13;;;1.93;;
15307;SDS011;7755;52.208;6.964;2022-07-23T10:32:02;1.70;;;1.60;;
15307;SDS011;7755;52.208;6.964;2022-07-23T10:36:23;1.87;;;1.77;;
15307;SDS011;7755;52.208;6.964;2022-07-23T10:40:52;1.60;;;1.50;;
15307;SDS011;7755;52.208;6.964;2022-07-23T11:17:02;2.70;;;2.00;;
15307;SDS011;7755;52.208;6.964;2022-07-23T11:26:03;2.63;;;2.00;;
15307;SDS011;7755;52.208;6.964;2022-07-23T11:39:08;2.23;;;1.73;;
15307;SDS011;7755;52.208;6.964;2022-07-23T11:43:24;2.80;;;2.50;;
15307;SDS011;7755;52.208;6.964;2022-07-23T11:47:40;2.40;;;2.20;;
15307;SDS011;7755;52.208;6.964;2022-07-23T12:36:16;2.60;;;1.73;;
15307;SDS011;7755;52.208;6.964;2022-07-23T12:40:37;2.37;;;2.27;;
15307;SDS011;7755;52.208;6.964;2022-07-23T12:53:38;2.77;;;2.20;;
15307;SDS011;7755;52.208;6.964;2022-07-23T12:57:46;2.80;;;2.60;;
15307;SDS011;7755;52.208;6.964;2022-07-23T13:01:53;2.30;;;2.10;;
15307;SDS011;7755;52.208;6.964;2022-07-23T13:05:59;2.77;;;2.57;;
15307;SDS011;7755;52.208;6.964;2022-07-23T13:10:06;2.70;;;2.50;;
15307;SDS011;7755;52.208;6.964;2022-07-23T13:14:11;2.70;;;2.50;;
15307;SDS011;7755;52.208;6.964;2022-07-23T13:18:14;2.80;;;2.20;;
15307;SDS011;7755;52.208;6.964;2022-07-23T13:22:18;2.40;;;2.20;;
15307;SDS011;7755;52.208;6.964;2022-07-23T13:26:23;2.43;;;2.27;;
15307;SDS011;7755;52.208;6.964;2022-07-23T13:30:25;2.40;;;2.20;;
15307;SDS011;7755;52.208;6.964;2022-07-23T13:34:28;7.43;;;2.20;;
15307;SDS011;7755;52.208;6.964;2022-07-23T13:38:30;2.30;;;2.10;;
15307;SDS011;7755;52.208;6.964;2022-07-23T13:42:36;2.37;;;2.17;;
15307;SDS011;7755;52.208;6.964;2022-07-23T13:46:40;4.17;;;2.40;;
15307;SDS011;7755;52.208;6.964;2022-07-23T13:50:54;2.53;;;2.30;;
15307;SDS011;7755;52.208;6.964;2022-07-23T13:54:57;2.23;;;2.00;;
15307;SDS011;7755;52.208;6.964;2022-07-23T13:59:01;2.30;;;2.20;;
15307;SDS011;7755;52.208;6.964;2022-07-23T14:03:10;2.20;;;2.10;;
15307;SDS011;7755;52.208;6.964;2022-07-23T14:07:19;2.30;;;2.20;;
15307;SDS011;7755;52.208;6.964;2022-07-23T14:11:29;2.27;;;2.17;;
15307;SDS011;7755;52.208;6.964;2022-07-23T14:15:33;2.30;;;2.20;;
15307;SDS011;7755;52.208;6.964;2022-07-23T14:19:36;2.70;;;2.50;;
15307;SDS011;7755;52.208;6.964;2022-07-23T14:23:39;3.83;;;3.30;;
15307;SDS011;7755;52.208;6.964;2022-07-23T14:27:48;2.30;;;2.20;;
15307;SDS011;7755;52.208;6.964;2022-07-23T14:31:51;2.73;;;2.20;;
15307;SDS011;7755;52.208;6.964;2022-07-23T14:35:53;2.30;;;2.20;;
15307;SDS011;7755;52.208;6.964;2022-07-23T14:39:58;2.73;;;2.53;;
15307;SDS011;7755;52.208;6.964;2022-07-23T14:44:01;2.60;;;2.30;;
15307;SDS011;7755;52.208;6.964;2022-07-23T14:48:06;2.57;;;2.43;;
15307;SDS011;7755;52.208;6.964;2022-07-23T14:52:17;2.30;;;2.13;;
15307;SDS011;7755;52.208;6.964;2022-07-23T14:56:21;2.50;;;2.30;;
15307;SDS011;7755;52.208;6.964;2022-07-23T15:00:24;2.53;;;2.33;;
15307;SDS011;7755;52.208;6.964;2022-07-23T15:04:28;2.70;;;2.50;;
15307;SDS011;7755;52.208;6.964;2022-07-23T15:08:30;2.80;;;2.50;;
15307;SDS011;7755;52.208;6.964;2022-07-23T15:12:33;2.43;;;2.23;;
15307;SDS011;7755;52.208;6.964;2022-07-23T15:16:36;2.73;;;2.53;;
15307;SDS011;7755;52.208;6.964;2022-07-23T15:20:39;2.63;;;2.43;;
15307;SDS011;7755;52.208;6.964;2022-07-23T15:24:42;2.53;;;2.33;;
15307;SDS011;7755;52.208;6.964;2022-07-23T15:28:44;3.70;;;3.40;;
15307;SDS011;7755;52.208;6.964;2022-07-23T15:32:46;2.87;;;2.67;;
15307;SDS011;7755;52.208;6.964;2022-07-23T15:36:50;3.00;;;2.80;;
15307;SDS011;7755;52.208;6.964;2022-07-23T15:40:56;3.20;;;2.20;;
15307;SDS011;7755;52.208;6.964;2022-07-23T15:44:58;2.90;;;2.57;;
15307;SDS011;7755;52.208;6.964;2022-07-23T15:49:01;3.13;;;2.87;;
15307;SDS011;7755;52.208;6.964;2022-07-23T15:57:10;3.43;;;2.70;;
15307;SDS011;7755;52.208;6.964;2022-07-23T16:01:24;4.17;;;2.87;;
15307;SDS011;7755;52.208;6.964;2022-07-23T16:05:31;2.50;;;2.30;;
15307;SDS011;7755;52.208;6.964;2022-07-23T16:09:34;3.03;;;2.73;;
15307;SDS011;7755;52.208;6.964;2022-07-23T16:13:37;3.07;;;2.50;;
15307;SDS011;7755;52.208;6.964;2022-07-23T16:17:40;2.97;;;2.77;;
15307;SDS011;7755;52.208;6.964;2022-07-23T16:21:42;3.00;;;2.80;;
15307;SDS011;7755;52.208;6.964;2022-07-23T16:25:46;2.97;;;2.67;;
15307;SDS011;7755;52.208;6.964;2022-07-23T16:30:03;2.90;;;2.70;;
15307;SDS011;7755;52.208;6.964;2022-07-23T16:34:20;3.57;;;3.27;;
15307;SDS011;7755;52.208;6.964;2022-07-23T16:38:34;3.23;;;2.87;;
15307;SDS011;7755;52.208;6.964;2022-07-23T16:42:39;3.33;;;2.90;;
15307;SDS011;7755;52.208;6.964;2022-07-23T16:46:42;3.57;;;2.70;;
15307;SDS011;7755;52.208;6.964;2022-07-23T16:54:57;2.80;;;2.60;;
15307;SDS011;7755;52.208;6.964;2022-07-23T16:59:07;3.17;;;2.97;;
15307;SDS011;7755;52.208;6.964;2022-07-23T17:03:10;2.97;;;2.70;;
15307;SDS011;7755;52.208;6.964;2022-07-23T17:11:25;3.80;;;3.50;;
15307;SDS011;7755;52.208;6.964;2022-07-23T17:15:30;2.90;;;2.70;;
15307;SDS011;7755;52.208;6.964;2022-07-23T17:23:38;2.57;;;2.37;;
15307;SDS011;7755;52.208;6.964;2022-07-23T17:27:41;4.50;;;3.57;;
15307;SDS011;7755;52.208;6.964;2022-07-23T17:31:46;2.93;;;2.73;;
15307;SDS011;7755;52.208;6.964;2022-07-23T17:36:07;2.90;;;2.70;;
15307;SDS011;7755;52.208;6.964;2022-07-23T17:44:32;3.33;;;3.03;;
15307;SDS011;7755;52.208;6.964;2022-07-23T17:48:53;2.87;;;2.67;;
15307;SDS011;7755;52.208;6.964;2022-07-23T17:53:11;3.00;;;2.70;;
15307;SDS011;7755;52.208;6.964;2022-07-23T17:57:21;3.03;;;2.73;;
15307;SDS011;7755;52.208;6.964;2022-07-23T18:01:24;3.43;;;3.13;;
15307;SDS011;7755;52.208;6.964;2022-07-23T18:05:30;3.33;;;3.13;;
15307;SDS011;7755;52.208;6.964;2022-07-23T18:09:33;3.83;;;2.90;;
15307;SDS011;7755;52.208;6.964;2022-07-23T18:13:35;3.53;;;3.23;;
15307;SDS011;7755;52.208;6.964;2022-07-23T18:17:37;4.03;;;3.67;;
15307;SDS011;7755;52.208;6.964;2022-07-23T18:21:45;3.23;;;3.03;;
15307;SDS011;7755;52.208;6.964;2022-07-23T18:25:48;3.33;;;3.00;;
15307;SDS011;7755;52.208;6.964;2022-07-23T18:29:51;3.40;;;3.10;;
15307;SDS011;7755;52.208;6.964;2022-07-23T18:33:54;3.33;;;2.97;;
15307;SDS011;7755;52.208;6.964;2022-07-23T18:38:04;3.73;;;3.07;;
15307;SDS011;7755;52.208;6.964;2022-07-23T18:42:07;2.83;;;2.63;;
15307;SDS011;7755;52.208;6.964;2022-07-23T18:46:10;3.10;;;2.90;;
15307;SDS011;7755;52.208;6.964;2022-07-23T18:54:31;3.87;;;3.57;;
15307;SDS011;7755;52.208;6.964;2022-07-23T18:58:35;2.67;;;2.47;;
15307;SDS011;7755;52.208;6.964;2022-07-23T19:02:43;2.93;;;2.73;;
15307;SDS011;7755;52.208;6.964;2022-07-23T19:06:45;3.40;;;3.10;;
15307;SDS011;7755;52.208;6.964;2022-07-23T19:10:49;3.87;;;3.60;;
15307;SDS011;7755;52.208;6.964;2022-07-23T19:14:51;3.10;;;2.90;;
15307;SDS011;7755;52.208;6.964;2022-07-23T19:18:54;3.30;;;3.10;;
15307;SDS011;7755;52.208;6.964;2022-07-23T19:22:58;3.37;;;3.07;;
15307;SDS011;7755;52.208;6.964;2022-07-23T19:27:02;2.93;;;2.73;;
15307;SDS011;7755;52.208;6.964;2022-07-23T19:31:05;3.83;;;2.90;;
15307;SDS011;7755;52.208;6.964;2022-07-23T19:35:08;3.00;;;2.80;;
15307;SDS011;7755;52.208;6.964;2022-07-23T19:39:10;3.20;;;3.00;;
15307;SDS011;7755;52.208;6.964;2022-07-23T19:43:14;2.70;;;2.50;;
15307;SDS011;7755;52.208;6.964;2022-07-23T19:47:16;3.30;;;3.00;;
15307;SDS011;7755;52.208;6.964;2022-07-23T19:51:18;3.27;;;3.00;;
15307;SDS011;7755;52.208;6.964;2022-07-23T19:55:22;4.87;;;4.43;;
15307;SDS011;7755;52.208;6.964;2022-07-23T19:59:26;3.30;;;3.10;;
15307;SDS011;7755;52.208;6.964;2022-07-23T20:03:29;3.20;;;3.00;;
15307;SDS011;7755;52.208;6.964;2022-07-23T20:07:31;3.57;;;3.37;;
15307;SDS011;7755;52.208;6.964;2022-07-23T20:11:34;3.30;;;3.10;;
15307;SDS011;7755;52.208;6.964;2022-07-23T20:15:38;3.23;;;2.93;;
15307;SDS011;7755;52.208;6.964;2022-07-23T20:19:40;3.93;;;3.63;;
15307;SDS011;7755;52.208;6.964;2022-07-23T20:23:42;4.10;;;3.83;;
15307;SDS011;7755;52.208;6.964;2022-07-23T20:27:44;3.87;;;3.57;;
15307;SDS011;7755;52.208;6.964;2022-07-23T20:31:48;4.03;;;3.73;;
15307;SDS011;7755;52.208;6.964;2022-07-23T20:35:51;4.80;;;4.40;;
15307;SDS011;7755;52.208;6.964;2022-07-23T20:39:53;4.70;;;4.30;;
15307;SDS011;7755;52.208;6.964;2022-07-23T20:43:56;4.67;;;4.23;;
15307;SDS011;7755;52.208;6.964;2022-07-23T20:47:59;4.60;;;4.30;;
15307;SDS011;7755;52.208;6.964;2022-07-23T20:52:01;4.93;;;4.40;;
15307;SDS011;7755;52.208;6.964;2022-07-23T20:56:04;5.00;;;4.60;;
15307;SDS011;7755;52.208;6.964;2022-07-23T21:00:08;4.00;;;3.60;;
15307;SDS011;7755;52.208;6.964;2022-07-23T21:04:14;4.27;;;3.87;;
15307;SDS011;7755;52.208;6.964;2022-07-23T21:08:16;4.30;;;4.00;;
15307;SDS011;7755;52.208;6.964;2022-07-23T21:12:18;4.23;;;3.93;;
15307;SDS011;7755;52.208;6.964;2022-07-23T21:16:21;4.50;;;4.20;;
15307;SDS011;7755;52.208;6.964;2022-07-23T21:20:25;3.63;;;3.33;;
15307;SDS011;7755;52.208;6.964;2022-07-23T21:24:47;4.47;;;4.07;;
15307;SDS011;7755;52.208;6.964;2022-07-23T21:28:50;4.40;;;4.10;;
15307;SDS011;7755;52.208;6.964;2022-07-23T21:32:52;4.10;;;3.80;;
15307;SDS011;7755;52.208;6.964;2022-07-23T21:36:55;5.53;;;5.13;;
15307;SDS011;7755;52.208;6.964;2022-07-23T21:40:57;5.67;;;5.27;;
15307;SDS011;7755;52.208;6.964;2022-07-23T21:44:59;5.37;;;4.97;;
15307;SDS011;7755;52.208;6.964;2022-07-23T21:49:02;5.30;;;4.90;;
15307;SDS011;7755;52.208;6.964;2022-07-23T21:53:06;6.50;;;5.90;;
15307;SDS011;7755;52.208;6.964;2022-07-23T21:57:08;5.07;;;4.67;;
15307;SDS011;7755;52.208;6.964;2022-07-23T22:01:11;4.47;;;4.17;;
15307;SDS011;7755;52.208;6.964;2022-07-23T22:05:13;4.50;;;4.10;;
15307;SDS011;7755;52.208;6.964;2022-07-23T22:09:16;4.50;;;4.20;;
15307;SDS011;7755;52.208;6.964;2022-07-23T22:13:19;4.87;;;4.47;;
15307;SDS011;7755;52.208;6.964;2022-07-23T22:17:22;5.50;;;5.10;;
15307;SDS011;7755;52.208;6.964;2022-07-23T22:21:24;4.83;;;4.43;;
15307;SDS011;7755;52.208;6.964;2022-07-23T22:25:27;4.80;;;4.50;;
15307;SDS011;7755;52.208;6.964;2022-07-23T22:29:29;5.37;;;4.97;;
15307;SDS011;7755;52.208;6.964;2022-07-23T22:33:32;7.97;;;7.00;;
15307;SDS011;7755;52.208;6.964;2022-07-23T22:37:34;7.70;;;6.93;;
15307;SDS011;7755;52.208;6.964;2022-07-23T22:41:37;5.70;;;5.20;;
15307;SDS011;7755;52.208;6.964;2022-07-23T22:45:39;5.27;;;4.70;;
15307;SDS011;7755;52.208;6.964;2022-07-23T22:49:42;4.90;;;4.60;;
15307;SDS011;7755;52.208;6.964;2022-07-23T22:53:45;4.90;;;4.50;;
15307;SDS011;7755;52.208;6.964;2022-07-23T22:57:48;5.10;;;4.70;;
15307;SDS011;7755;52.208;6.964;2022-07-23T23:01:50;4.33;;;4.03;;
15307;SDS011;7755;52.208;6.964;2022-07-23T23:05:52;4.90;;;4.50;;
15307;SDS011;7755;52.208;6.964;2022-07-23T23:09:55;4.60;;;4.30;;
15307;SDS011;7755;52.208;6.964;2022-07-23T23:13:58;5.10;;;4.80;;
15307;SDS011;7755;52.208;6.964;2022-07-23T23:18:00;5.60;;;5.20;;
15307;SDS011;7755;52.208;6.964;2022-07-23T23:22:02;6.40;;;5.90;;
15307;SDS011;7755;52.208;6.964;2022-07-23T23:26:06;7.03;;;6.43;;
15307;SDS011;7755;52.208;6.964;2022-07-23T23:30:11;4.77;;;4.43;;
15307;SDS011;7755;52.208;6.964;2022-07-23T23:34:14;5.23;;;4.83;;
15307;SDS011;7755;52.208;6.964;2022-07-23T23:38:17;5.90;;;5.40;;
15307;SDS011;7755;52.208;6.964;2022-07-23T23:42:21;4.93;;;4.53;;
15307;SDS011;7755;52.208;6.964;2022-07-23T23:46:25;9.00;;;8.10;;
15307;SDS011;7755;52.208;6.964;2022-07-23T23:50:28;6.23;;;5.53;;
15307;SDS011;7755;52.208;6.964;2022-07-23T23:54:30;5.50;;;5.10;;
15307;SDS011;7755;52.208;6.964;2022-07-23T23:58:32;6.33;;;5.73;;
